Boykins, Virginia
Current Conditions -  °F | °C
As of 7:15 PM on Sunday 23 Nov 2014 (Local Time) from KEMV Reporting Station
Broken Clouds Broken Clouds  
Wind Chill: 54°   Ceiling: 3300
Heat Index: 54°   Visibility: 10mi
Dew Point: 54°   Wind: 5mph
Humidity: 100%   Direction: 70°ENE
Pressure: 29.99"   Gusts: NA
Location:  36.58°N, 77.2°W
Report Text: KEMV 240015Z AUTO 07004KT 10SM SCT006 SCT011 BKN033 12/12 A2999 RMK AO2
Loading
Personal Weather Stations






























Interactive Weather Map New forecast layout! Learn more

10-Day Weather Forecast

Advertisements
Track Severe Weather on mobile